createdAt,value
2022-11-20T00:01:42.489Z,9.70
2022-11-20T00:04:12.622Z,9.20
2022-11-20T00:06:41.638Z,10.20
2022-11-20T00:09:13.089Z,10.50
2022-11-20T00:11:41.761Z,11.10
2022-11-20T00:14:12.284Z,9.40
2022-11-20T00:16:42.413Z,10.03
2022-11-20T00:19:11.605Z,10.23
2022-11-20T00:21:40.264Z,9.93
2022-11-20T00:24:11.474Z,9.53
2022-11-20T00:26:40.010Z,9.63
2022-11-20T00:29:10.921Z,10.43
2022-11-20T00:31:39.553Z,10.23
2022-11-20T00:34:09.521Z,10.37
2022-11-20T00:36:38.096Z,10.53
2022-11-20T00:39:06.781Z,10.63
2022-11-20T00:41:35.364Z,10.07
2022-11-20T00:44:04.014Z,10.23
2022-11-20T00:46:32.581Z,10.73
2022-11-20T00:49:01.163Z,10.47
2022-11-20T00:51:31.121Z,11.07
2022-11-20T00:54:01.026Z,11.87
2022-11-20T00:56:29.755Z,10.03
2022-11-20T00:59:01.013Z,10.03
2022-11-20T01:01:31.086Z,9.20
2022-11-20T01:04:01.461Z,9.53
2022-11-20T01:06:34.808Z,9.30
2022-11-20T01:09:05.540Z,9.93
2022-11-20T01:11:36.534Z,9.73
2022-11-20T01:14:07.812Z,9.50
2022-11-20T01:16:38.845Z,8.60
2022-11-20T01:19:09.778Z,8.87
2022-11-20T01:21:42.290Z,9.43
2022-11-20T01:24:15.412Z,10.10
2022-11-20T01:26:45.537Z,9.07
2022-11-20T01:29:17.196Z,10.00
2022-11-20T01:31:47.300Z,9.87
2022-11-20T01:34:18.758Z,9.30
2022-11-20T01:36:49.165Z,9.77
2022-11-20T01:39:20.269Z,10.23
2022-11-20T01:42:10.196Z,9.93
2022-11-20T01:44:58.844Z,9.57
2022-11-20T01:47:35.441Z,10.20
2022-11-20T01:50:11.874Z,9.03
2022-11-20T01:52:48.146Z,10.47
2022-11-20T01:55:20.942Z,10.30
2022-11-20T01:57:51.014Z,10.73
2022-11-20T02:00:22.441Z,11.47
2022-11-20T02:02:54.684Z,10.83
2022-11-20T02:05:29.238Z,11.43
2022-11-20T02:08:01.364Z,10.53
2022-11-20T02:10:31.754Z,10.93
2022-11-20T02:13:18.318Z,10.80
2022-11-20T02:15:47.842Z,11.03
2022-11-20T02:18:19.715Z,11.17
2022-11-20T02:20:50.814Z,11.03
2022-11-20T02:23:28.791Z,11.03
2022-11-20T02:26:00.849Z,11.07
2022-11-20T02:28:30.234Z,10.33
2022-11-20T02:30:58.876Z,11.10
2022-11-20T02:33:27.380Z,11.30
2022-11-20T02:35:56.010Z,11.97
2022-11-20T02:38:24.890Z,12.30
2022-11-20T02:40:55.740Z,12.53
2022-11-20T02:43:26.009Z,11.27
2022-11-20T02:45:54.555Z,11.63
2022-11-20T02:48:25.252Z,11.63
2022-11-20T02:50:54.133Z,11.33
2022-11-20T02:53:22.787Z,12.17
2022-11-20T02:55:51.386Z,10.97
2022-11-20T02:58:19.990Z,11.53
2022-11-20T03:00:49.968Z,12.40
2022-11-20T03:03:18.574Z,11.23
2022-11-20T03:05:47.111Z,10.83
2022-11-20T03:08:15.613Z,11.50
2022-11-20T03:10:44.164Z,11.47
2022-11-20T03:13:12.681Z,11.47
2022-11-20T03:15:41.204Z,11.00
2022-11-20T03:18:11.098Z,11.53
2022-11-20T03:20:39.582Z,11.50
2022-11-20T03:23:08.093Z,12.30
2022-11-20T03:25:36.602Z,11.37
2022-11-20T03:28:05.456Z,12.13
2022-11-20T03:30:34.813Z,11.87
2022-11-20T03:33:03.305Z,12.70
2022-11-20T03:35:33.355Z,11.17
2022-11-20T03:38:01.926Z,11.40
2022-11-20T03:40:30.423Z,11.47
2022-11-20T03:42:58.961Z,11.83
2022-11-20T03:45:27.472Z,11.73
2022-11-20T03:47:56.003Z,12.30
2022-11-20T03:50:24.615Z,12.60
2022-11-20T03:52:54.590Z,12.30
2022-11-20T03:55:23.124Z,12.37
2022-11-20T03:57:51.628Z,12.50
2022-11-20T04:00:20.601Z,11.17
2022-11-20T04:02:49.088Z,11.70
2022-11-20T04:05:17.672Z,11.70
2022-11-20T04:07:46.203Z,12.03
2022-11-20T04:10:16.174Z,11.60
2022-11-20T04:12:44.874Z,11.27
2022-11-20T04:15:13.662Z,11.97
2022-11-20T04:17:42.117Z,11.13
2022-11-20T04:20:11.176Z,12.47
2022-11-20T04:22:39.703Z,11.67
2022-11-20T04:25:08.824Z,11.70
2022-11-20T04:27:38.751Z,12.30
2022-11-20T04:30:08.282Z,11.60
2022-11-20T04:32:36.858Z,10.90
2022-11-20T04:35:05.818Z,11.47
2022-11-20T04:37:34.756Z,10.87
2022-11-20T04:40:03.276Z,11.43
2022-11-20T04:42:31.859Z,12.10
2022-11-20T04:45:01.733Z,11.33
2022-11-20T04:47:30.369Z,11.47
2022-11-20T04:49:59.064Z,10.93
2022-11-20T04:52:27.629Z,11.70
2022-11-20T04:54:56.525Z,11.67
2022-11-20T04:57:25.096Z,11.13
2022-11-20T04:59:53.655Z,11.83
2022-11-20T05:02:24.013Z,12.00
2022-11-20T05:04:52.658Z,14.33
2022-11-20T05:07:21.289Z,13.10
2022-11-20T05:09:50.100Z,13.83
2022-11-20T05:12:18.729Z,13.63
2022-11-20T05:14:47.221Z,14.30
2022-11-20T05:17:16.140Z,13.80
2022-11-20T05:19:49.400Z,13.67
2022-11-20T05:22:21.843Z,15.10
2022-11-20T05:24:50.416Z,13.43
2022-11-20T05:27:19.222Z,14.40
2022-11-20T05:29:48.053Z,14.47
2022-11-20T05:32:16.751Z,14.27
2022-11-20T05:34:47.743Z,13.70
2022-11-20T05:37:16.276Z,13.90
2022-11-20T05:39:45.196Z,13.70
2022-11-20T05:42:31.107Z,15.27
2022-11-20T05:45:00.536Z,14.90
2022-11-20T05:47:30.010Z,15.13
2022-11-20T05:50:00.314Z,14.00
2022-11-20T05:52:30.892Z,13.57
2022-11-20T05:55:01.898Z,14.30
2022-11-20T05:57:30.690Z,14.83
2022-11-20T05:59:59.561Z,15.73
2022-11-20T06:02:28.368Z,13.40
2022-11-20T06:04:58.010Z,14.97
2022-11-20T06:07:28.493Z,14.70
2022-11-20T06:09:57.421Z,15.47
2022-11-20T06:12:26.326Z,14.63
2022-11-20T06:14:55.200Z,17.57
2022-11-20T06:17:25.057Z,17.37
2022-11-20T06:19:53.605Z,17.87
2022-11-20T06:22:22.789Z,18.20
2022-11-20T06:24:54.077Z,16.80
2022-11-20T06:27:23.740Z,17.70
2022-11-20T06:29:52.778Z,17.03
2022-11-20T06:32:21.395Z,18.10
2022-11-20T06:34:50.238Z,18.07
2022-11-20T06:37:18.804Z,19.03
2022-11-20T06:39:47.902Z,19.90
2022-11-20T06:42:17.901Z,20.87
2022-11-20T06:44:46.975Z,18.37
2022-11-20T06:47:15.466Z,17.30
2022-11-20T06:49:44.393Z,18.17
2022-11-20T06:52:14.222Z,17.33
2022-11-20T06:54:43.155Z,17.43
2022-11-20T06:57:12.110Z,17.37
2022-11-20T06:59:42.234Z,17.47
2022-11-20T07:02:12.919Z,17.13
2022-11-20T07:04:41.689Z,16.27
2022-11-20T07:07:11.558Z,16.80
2022-11-20T07:09:40.464Z,20.00
2022-11-20T07:12:09.064Z,17.73
2022-11-20T07:14:39.117Z,18.90
2022-11-20T07:17:09.386Z,15.93
2022-11-20T07:19:39.100Z,16.00
2022-11-20T07:22:07.974Z,18.03
2022-11-20T07:24:38.978Z,16.90
2022-11-20T07:27:10.453Z,16.73
2022-11-20T07:29:39.237Z,19.23
2022-11-20T07:32:09.273Z,18.90
2022-11-20T07:34:38.017Z,17.60
2022-11-20T07:37:10.296Z,18.10
2022-11-20T07:39:39.480Z,19.73
2022-11-20T07:42:09.180Z,18.77
2022-11-20T07:44:40.712Z,18.63
2022-11-20T07:47:10.979Z,19.63
2022-11-20T07:49:39.841Z,16.27
2022-11-20T07:52:08.909Z,18.63
2022-11-20T07:54:37.820Z,16.03
2022-11-20T07:57:06.685Z,17.10
2022-11-20T07:59:35.575Z,17.03
2022-11-20T08:02:04.425Z,16.83
2022-11-20T08:04:34.877Z,17.13
2022-11-20T08:07:03.987Z,16.63
2022-11-20T08:09:33.607Z,15.33
2022-11-20T08:12:19.790Z,14.83
2022-11-20T08:14:48.746Z,15.27
2022-11-20T08:17:17.870Z,14.17
2022-11-20T08:19:48.334Z,14.47
2022-11-20T08:22:18.633Z,15.33
2022-11-20T08:24:47.188Z,14.57
2022-11-20T08:27:15.697Z,15.07
2022-11-20T08:29:44.790Z,14.57
2022-11-20T08:32:13.405Z,15.20
2022-11-20T08:34:41.916Z,15.10
2022-11-20T08:37:11.843Z,15.07
2022-11-20T08:39:40.587Z,15.43
2022-11-20T08:42:09.493Z,14.50
2022-11-20T08:44:38.098Z,14.37
2022-11-20T08:47:06.750Z,14.50
2022-11-20T08:49:35.784Z,14.67
2022-11-20T08:52:04.371Z,13.50
2022-11-20T08:54:34.291Z,14.70
2022-11-20T08:57:02.867Z,14.57
2022-11-20T09:00:03.628Z,14.30
2022-11-20T09:02:20.413Z,13.33
2022-11-20T09:04:48.906Z,13.87
2022-11-20T09:07:17.525Z,14.70
2022-11-20T09:09:58.746Z,14.43
2022-11-20T09:12:36.329Z,14.23
2022-11-20T09:15:05.301Z,15.60
2022-11-20T09:17:33.865Z,15.57
2022-11-20T09:20:02.741Z,15.63
2022-11-20T09:22:31.646Z,15.50
2022-11-20T09:25:02.046Z,14.57
2022-11-20T09:27:30.926Z,15.27
2022-11-20T09:29:59.601Z,15.67
2022-11-20T09:32:28.617Z,14.63
2022-11-20T09:34:57.127Z,15.23
2022-11-20T09:37:26.028Z,15.17
2022-11-20T09:39:54.577Z,15.17
2022-11-20T09:42:35.435Z,15.23
2022-11-20T09:45:25.227Z,14.87
2022-11-20T09:48:16.802Z,14.23
2022-11-20T09:50:50.175Z,14.60
2022-11-20T09:53:29.710Z,14.47
2022-11-20T09:55:59.306Z,14.13
2022-11-20T09:58:35.806Z,14.73
2022-11-20T10:01:13.497Z,14.23
2022-11-20T10:03:53.677Z,14.97
2022-11-20T10:06:30.903Z,15.00
2022-11-20T10:09:09.319Z,14.60
2022-11-20T10:11:50.849Z,15.33
2022-11-20T10:14:32.814Z,14.13
2022-11-20T10:17:10.413Z,14.73
2022-11-20T10:19:52.773Z,14.07
2022-11-20T10:22:33.527Z,13.43
2022-11-20T10:25:09.573Z,13.97
2022-11-20T10:28:06.788Z,15.13
2022-11-20T10:30:39.854Z,20.67
2022-11-20T10:33:18.148Z,20.33
2022-11-20T10:35:51.470Z,15.10
2022-11-20T10:38:25.590Z,14.27
2022-11-20T10:41:18.710Z,14.40
2022-11-20T10:43:48.657Z,14.47
2022-11-20T10:46:23.087Z,13.73
2022-11-20T10:48:52.965Z,15.10
2022-11-20T10:51:34.155Z,13.90
2022-11-20T10:54:14.672Z,16.00
2022-11-20T10:56:50.248Z,15.47
2022-11-20T10:59:42.909Z,14.23
2022-11-20T11:02:21.794Z,14.53
2022-11-20T11:04:52.972Z,16.07
2022-11-20T11:07:25.715Z,18.17
2022-11-20T11:09:56.826Z,17.40
2022-11-20T11:12:27.822Z,17.10
2022-11-20T11:14:57.938Z,14.57
2022-11-20T11:17:31.094Z,15.30
2022-11-20T11:20:01.575Z,14.20
2022-11-20T11:22:32.477Z,15.00
2022-11-20T11:25:01.661Z,13.67
2022-11-20T11:27:30.636Z,15.13
2022-11-20T11:30:15.773Z,18.87
2022-11-20T11:32:46.716Z,22.80
2022-11-20T11:35:24.982Z,17.67
2022-11-20T11:37:56.293Z,18.13
2022-11-20T11:40:28.156Z,14.70
2022-11-20T11:43:02.140Z,14.13
2022-11-20T11:45:29.873Z,14.37
2022-11-20T11:48:02.485Z,13.97
2022-11-20T11:50:32.141Z,15.60
2022-11-20T11:53:10.556Z,16.13
2022-11-20T11:55:44.810Z,16.67
2022-11-20T11:58:35.726Z,16.50
2022-11-20T12:01:10.308Z,23.90
2022-11-20T12:03:42.840Z,19.23
2022-11-20T12:06:14.957Z,18.53
2022-11-20T12:08:50.484Z,20.17
2022-11-20T12:11:25.915Z,17.73
2022-11-20T12:14:02.788Z,15.03
2022-11-20T12:16:36.069Z,13.47
2022-11-20T12:19:12.309Z,13.13
2022-11-20T12:21:51.601Z,14.30
2022-11-20T12:24:44.121Z,15.27
2022-11-20T12:27:36.660Z,13.63
2022-11-20T12:30:10.834Z,12.07
2022-11-20T12:33:09.185Z,14.57
2022-11-20T12:35:52.726Z,12.77
2022-11-20T12:38:44.705Z,13.27
2022-11-20T12:41:46.605Z,14.37
2022-11-20T12:44:50.961Z,14.20
2022-11-20T12:47:29.719Z,14.97
2022-11-20T12:50:08.528Z,13.33
2022-11-20T12:52:49.435Z,14.47
2022-11-20T12:55:33.497Z,15.60
2022-11-20T12:58:11.050Z,13.70
2022-11-20T13:00:44.956Z,15.83
2022-11-20T13:03:49.682Z,13.53
2022-11-20T13:06:20.219Z,19.23
2022-11-20T13:08:56.942Z,18.33
2022-11-20T13:11:34.251Z,19.53
2022-11-20T13:14:12.213Z,17.33
2022-11-20T13:16:47.890Z,17.13
2022-11-20T13:19:19.114Z,19.10
2022-11-20T13:21:50.299Z,22.37
2022-11-20T13:24:28.956Z,26.80
2022-11-20T13:27:20.834Z,22.47
2022-11-20T13:30:02.206Z,22.43
2022-11-20T13:32:33.139Z,20.37
2022-11-20T13:35:04.326Z,25.60
2022-11-20T13:37:35.311Z,20.77
2022-11-20T13:40:24.258Z,20.07
2022-11-20T13:43:09.465Z,20.83
2022-11-20T13:45:38.138Z,26.23
2022-11-20T13:48:22.490Z,20.77
2022-11-20T13:51:02.772Z,23.63
2022-11-20T13:53:53.036Z,23.60
2022-11-20T13:56:30.162Z,33.50
2022-11-20T13:59:14.691Z,45.80
2022-11-20T14:01:47.095Z,41.00
2022-11-20T14:04:20.269Z,28.13
2022-11-20T14:06:50.841Z,19.30
2022-11-20T14:09:29.350Z,18.80
2022-11-20T14:12:00.005Z,20.83
2022-11-20T14:14:30.174Z,20.17
2022-11-20T14:17:08.478Z,20.53
2022-11-20T14:19:38.498Z,22.20
2022-11-20T14:22:17.755Z,22.53
2022-11-20T14:24:46.690Z,20.50
2022-11-20T14:27:20.585Z,19.37
2022-11-20T14:29:52.107Z,27.70
2022-11-20T14:32:23.302Z,34.13
2022-11-20T14:34:53.055Z,33.03
2022-11-20T14:37:25.711Z,29.03
2022-11-20T14:39:56.355Z,26.90
2022-11-20T14:42:28.484Z,24.27
2022-11-20T14:44:58.924Z,21.10
2022-11-20T14:47:29.531Z,23.03
2022-11-20T14:49:59.696Z,24.73
2022-11-20T14:52:29.596Z,21.83
2022-11-20T14:55:01.306Z,19.83
2022-11-20T14:57:32.889Z,23.43
2022-11-20T15:00:22.395Z,22.47
2022-11-20T15:02:53.039Z,22.00
2022-11-20T15:05:23.202Z,19.93
2022-11-20T15:08:05.763Z,19.00
2022-11-20T15:10:34.920Z,19.50
2022-11-20T15:13:12.611Z,18.67
2022-11-20T15:15:47.603Z,18.77
2022-11-20T15:18:18.636Z,18.07
2022-11-20T15:20:47.926Z,20.37
2022-11-20T15:23:19.363Z,25.60
2022-11-20T15:25:49.419Z,31.87
2022-11-20T15:28:22.797Z,26.90
2022-11-20T15:30:52.039Z,31.23
2022-11-20T15:33:21.837Z,37.03
2022-11-20T15:35:50.587Z,32.40
2022-11-20T15:38:19.114Z,25.23
2022-11-20T15:40:47.991Z,18.40
2022-11-20T15:43:17.135Z,20.43
2022-11-20T15:45:48.940Z,19.50
2022-11-20T15:48:21.408Z,18.97
2022-11-20T15:50:55.303Z,18.50
2022-11-20T15:53:23.906Z,18.93
2022-11-20T15:55:52.882Z,18.40
2022-11-20T15:58:21.704Z,21.13
2022-11-20T16:00:51.799Z,22.20
2022-11-20T16:03:20.893Z,24.17
2022-11-20T16:05:49.728Z,24.37
2022-11-20T16:08:18.586Z,19.67
2022-11-20T16:10:47.419Z,18.73
2022-11-20T16:13:35.425Z,18.83
2022-11-20T16:16:07.694Z,21.07
2022-11-20T16:18:36.221Z,21.30
2022-11-20T16:21:05.170Z,19.53
2022-11-20T16:23:34.114Z,24.57
2022-11-20T16:26:11.678Z,26.90
2022-11-20T16:28:40.730Z,25.80
2022-11-20T16:31:16.379Z,39.73
2022-11-20T16:33:45.429Z,37.57
2022-11-20T16:36:16.186Z,34.80
2022-11-20T16:38:44.693Z,43.50
2022-11-20T16:41:15.297Z,62.70
2022-11-20T16:43:47.641Z,54.53
2022-11-20T16:46:18.483Z,41.87
2022-11-20T16:48:47.498Z,41.50
2022-11-20T16:51:16.230Z,34.50
2022-11-20T16:53:44.958Z,32.73
2022-11-20T16:56:16.104Z,48.27
2022-11-20T16:58:45.182Z,49.40
2022-11-20T17:01:16.038Z,41.87
2022-11-20T17:03:48.028Z,39.90
2022-11-20T17:06:18.767Z,32.30
2022-11-20T17:08:48.169Z,33.30
2022-11-20T17:11:20.910Z,28.57
2022-11-20T17:13:50.371Z,29.87
2022-11-20T17:16:20.470Z,34.50
2022-11-20T17:18:51.446Z,33.23
2022-11-20T17:21:20.789Z,31.87
2022-11-20T17:23:49.380Z,26.93
2022-11-20T17:26:19.801Z,23.43
2022-11-20T17:28:54.250Z,23.40
2022-11-20T17:31:23.082Z,22.23
2022-11-20T17:33:52.999Z,22.53
2022-11-20T17:36:22.476Z,22.70
2022-11-20T17:38:51.018Z,23.17
2022-11-20T17:41:22.209Z,24.83
2022-11-20T17:43:55.016Z,26.07
2022-11-20T17:46:26.833Z,31.27
2022-11-20T17:48:57.924Z,38.90
2022-11-20T17:51:28.303Z,44.53
2022-11-20T17:53:59.148Z,38.97
2022-11-20T17:56:46.129Z,43.07
2022-11-20T17:59:14.866Z,41.83
2022-11-20T18:01:43.986Z,36.70
2022-11-20T18:04:14.611Z,34.33
2022-11-20T18:06:43.697Z,30.27
2022-11-20T18:09:12.952Z,38.27
2022-11-20T18:11:43.266Z,41.77
2022-11-20T18:14:32.664Z,40.40
2022-11-20T18:17:03.612Z,38.77
2022-11-20T18:19:40.427Z,37.13
2022-11-20T18:22:13.447Z,50.77
2022-11-20T18:24:43.426Z,53.27
2022-11-20T18:27:16.613Z,43.17
2022-11-20T18:29:46.215Z,39.00
2022-11-20T18:32:15.054Z,35.23
2022-11-20T18:34:45.250Z,32.70
2022-11-20T18:37:15.330Z,29.90
2022-11-20T18:39:44.200Z,28.00
2022-11-20T18:42:31.838Z,30.20
2022-11-20T18:45:01.500Z,34.53
2022-11-20T18:47:32.477Z,38.43
2022-11-20T18:50:03.222Z,36.63
2022-11-20T18:52:34.033Z,36.67
2022-11-20T18:55:04.151Z,34.87
2022-11-20T18:57:33.652Z,42.93
2022-11-20T19:00:08.422Z,38.60
2022-11-20T19:02:42.722Z,34.13
2022-11-20T19:05:14.898Z,35.17
2022-11-20T19:07:43.695Z,35.10
2022-11-20T19:10:12.391Z,33.07
2022-11-20T19:12:41.250Z,31.87
2022-11-20T19:15:10.750Z,28.77
2022-11-20T19:17:39.304Z,29.67
2022-11-20T19:20:08.644Z,30.97
2022-11-20T19:22:38.717Z,41.80
2022-11-20T19:25:08.797Z,46.43
2022-11-20T19:27:37.379Z,39.83
2022-11-20T19:30:07.004Z,30.47
2022-11-20T19:32:35.730Z,29.43
2022-11-20T19:35:08.080Z,28.10
2022-11-20T19:37:38.807Z,28.03
2022-11-20T19:40:08.918Z,29.60
2022-11-20T19:42:37.614Z,28.20
2022-11-20T19:45:07.665Z,29.10
2022-11-20T19:48:06.068Z,29.17
2022-11-20T19:50:25.350Z,28.53
2022-11-20T19:52:58.711Z,31.77
2022-11-20T19:55:28.158Z,33.50
2022-11-20T19:57:57.354Z,31.17
2022-11-20T20:00:31.201Z,32.17
2022-11-20T20:03:01.661Z,31.07
2022-11-20T20:05:30.405Z,30.30
2022-11-20T20:08:00.896Z,28.53
2022-11-20T20:10:29.808Z,30.27
2022-11-20T20:12:58.389Z,28.60
2022-11-20T20:15:27.486Z,29.10
2022-11-20T20:17:56.687Z,29.40
2022-11-20T20:20:26.065Z,29.77
2022-11-20T20:22:54.881Z,29.40
2022-11-20T20:25:25.070Z,28.67
2022-11-20T20:27:54.084Z,27.63
2022-11-20T20:30:22.595Z,28.17
2022-11-20T20:32:56.056Z,28.40
2022-11-20T20:35:25.425Z,29.40
2022-11-20T20:37:54.067Z,30.23
2022-11-20T20:40:24.545Z,31.63
2022-11-20T20:42:53.180Z,32.33
2022-11-20T20:45:21.733Z,32.13
2022-11-20T20:47:50.660Z,33.10
2022-11-20T20:50:19.843Z,32.63
2022-11-20T20:52:48.686Z,29.13
2022-11-20T20:55:17.480Z,29.20
2022-11-20T20:57:47.864Z,29.23
2022-11-20T21:00:17.462Z,28.70
2022-11-20T21:02:47.136Z,29.63
2022-11-20T21:05:15.861Z,30.03
2022-11-20T21:07:58.755Z,30.10
2022-11-20T21:10:27.743Z,28.17
2022-11-20T21:12:58.259Z,27.03
2022-11-20T21:15:27.114Z,30.80
2022-11-20T21:17:55.959Z,31.23
2022-11-20T21:20:42.367Z,29.67
2022-11-20T21:23:11.652Z,27.87
2022-11-20T21:25:41.185Z,26.63
2022-11-20T21:28:16.830Z,29.17
2022-11-20T21:30:47.519Z,29.87
2022-11-20T21:33:16.235Z,28.83
2022-11-20T21:35:45.039Z,28.50
2022-11-20T21:38:13.610Z,27.47
2022-11-20T21:40:42.540Z,28.63
2022-11-20T21:43:12.844Z,27.60
2022-11-20T21:45:41.537Z,28.43
2022-11-20T21:48:10.454Z,26.27
2022-11-20T21:50:39.165Z,26.43
2022-11-20T21:53:07.710Z,25.87
2022-11-20T21:55:36.780Z,25.73
2022-11-20T21:58:05.966Z,27.43
2022-11-20T22:00:36.932Z,28.80
2022-11-20T22:03:06.284Z,26.97
2022-11-20T22:05:34.908Z,26.20
2022-11-20T22:08:04.132Z,26.00
2022-11-20T22:10:32.723Z,26.20
2022-11-20T22:13:15.492Z,25.67
2022-11-20T22:16:00.359Z,26.90
2022-11-20T22:18:29.961Z,27.33
2022-11-20T22:20:58.846Z,26.57
2022-11-20T22:23:28.514Z,26.00
2022-11-20T22:25:58.160Z,25.73
2022-11-20T22:28:27.157Z,24.30
2022-11-20T22:31:02.080Z,23.27
2022-11-20T22:33:32.281Z,25.17
2022-11-20T22:36:02.608Z,24.33
2022-11-20T22:38:35.142Z,25.10
2022-11-20T22:41:09.449Z,22.77
2022-11-20T22:43:38.363Z,23.60
2022-11-20T22:46:10.957Z,21.33
2022-11-20T22:48:41.741Z,21.87
2022-11-20T22:51:12.928Z,23.03
2022-11-20T22:53:42.424Z,22.70
2022-11-20T22:56:14.278Z,21.93
2022-11-20T22:58:44.905Z,22.80
2022-11-20T23:01:17.449Z,22.87
2022-11-20T23:03:48.413Z,23.13
2022-11-20T23:06:19.333Z,23.93
2022-11-20T23:08:48.430Z,24.87
2022-11-20T23:11:20.022Z,23.37
2022-11-20T23:13:53.110Z,23.70
2022-11-20T23:16:23.418Z,26.00
2022-11-20T23:18:56.014Z,26.57
2022-11-20T23:21:25.764Z,29.73
2022-11-20T23:23:56.508Z,30.83
2022-11-20T23:26:27.197Z,27.87
2022-11-20T23:28:57.777Z,36.97
2022-11-20T23:31:29.963Z,38.03
2022-11-20T23:33:59.605Z,28.50
2022-11-20T23:36:28.412Z,24.97
2022-11-20T23:38:57.244Z,26.37
2022-11-20T23:41:26.077Z,25.27
2022-11-20T23:43:55.090Z,29.87
2022-11-20T23:46:23.663Z,25.00
2022-11-20T23:48:53.660Z,22.80
2022-11-20T23:51:22.215Z,21.47
2022-11-20T23:53:50.838Z,22.67
2022-11-20T23:56:19.554Z,24.37
2022-11-20T23:58:48.619Z,22.83
